sensor_id;sensor_type;location;lat;lon;timestamp;temperature;humidity
14397;DHT22;50653;47.810;13.022;2023-05-07T00:01:37;16.10;99.90
14397;DHT22;50653;47.810;13.022;2023-05-07T00:04:02;16.10;99.90
14397;DHT22;50653;47.810;13.022;2023-05-07T00:06:29;16.10;99.90
14397;DHT22;50653;47.810;13.022;2023-05-07T00:08:56;16.10;99.90
14397;DHT22;50653;47.810;13.022;2023-05-07T00:11:22;16.30;99.90
14397;DHT22;50653;47.810;13.022;2023-05-07T00:13:48;16.20;99.90
14397;DHT22;50653;47.810;13.022;2023-05-07T00:16:14;16.00;99.90
14397;DHT22;50653;47.810;13.022;2023-05-07T00:18:39;16.10;99.90
14397;DHT22;50653;47.810;13.022;2023-05-07T00:21:05;16.10;99.90
14397;DHT22;50653;47.810;13.022;2023-05-07T00:23:31;15.90;99.90
14397;DHT22;50653;47.810;13.022;2023-05-07T00:25:56;16.00;99.90
14397;DHT22;50653;47.810;13.022;2023-05-07T00:28:22;15.90;99.90
14397;DHT22;50653;47.810;13.022;2023-05-07T00:30:48;16.00;99.90
14397;DHT22;50653;47.810;13.022;2023-05-07T00:33:13;15.80;99.90
14397;DHT22;50653;47.810;13.022;2023-05-07T00:35:39;15.80;99.90
14397;DHT22;50653;47.810;13.022;2023-05-07T00:38:04;15.90;99.90
14397;DHT22;50653;47.810;13.022;2023-05-07T00:40:30;15.80;99.90
14397;DHT22;50653;47.810;13.022;2023-05-07T00:42:56;15.80;99.90
14397;DHT22;50653;47.810;13.022;2023-05-07T00:45:26;15.90;99.90
14397;DHT22;50653;47.810;13.022;2023-05-07T00:47:58;15.90;99.90
14397;DHT22;50653;47.810;13.022;2023-05-07T00:50:25;15.50;99.90
14397;DHT22;50653;47.810;13.022;2023-05-07T00:52:51;15.60;99.90
14397;DHT22;50653;47.810;13.022;2023-05-07T00:55:17;15.80;99.90
14397;DHT22;50653;47.810;13.022;2023-05-07T00:57:43;15.70;99.90
14397;DHT22;50653;47.810;13.022;2023-05-07T01:00:10;15.80;99.90
14397;DHT22;50653;47.810;13.022;2023-05-07T01:02:38;15.80;99.90
14397;DHT22;50653;47.810;13.022;2023-05-07T01:05:05;15.40;99.90
14397;DHT22;50653;47.810;13.022;2023-05-07T01:07:33;15.60;99.90
14397;DHT22;50653;47.810;13.022;2023-05-07T01:10:00;15.70;99.90
14397;DHT22;50653;47.810;13.022;2023-05-07T01:12:26;15.70;99.90
14397;DHT22;50653;47.810;13.022;2023-05-07T01:14:53;15.70;99.90
14397;DHT22;50653;47.810;13.022;2023-05-07T01:17:20;15.50;99.90
14397;DHT22;50653;47.810;13.022;2023-05-07T01:19:46;15.60;99.90
14397;DHT22;50653;47.810;13.022;2023-05-07T01:22:14;15.50;99.90
14397;DHT22;50653;47.810;13.022;2023-05-07T01:24:47;15.40;99.90
14397;DHT22;50653;47.810;13.022;2023-05-07T01:27:15;15.30;99.90
14397;DHT22;50653;47.810;13.022;2023-05-07T01:29:40;15.30;99.90
14397;DHT22;50653;47.810;13.022;2023-05-07T01:32:07;15.00;99.90
14397;DHT22;50653;47.810;13.022;2023-05-07T01:34:35;15.40;99.90
14397;DHT22;50653;47.810;13.022;2023-05-07T01:37:02;15.50;99.90
14397;DHT22;50653;47.810;13.022;2023-05-07T01:39:29;15.70;99.90
14397;DHT22;50653;47.810;13.022;2023-05-07T01:41:56;15.60;99.90
14397;DHT22;50653;47.810;13.022;2023-05-07T01:44:23;15.50;99.90
14397;DHT22;50653;47.810;13.022;2023-05-07T01:46:50;15.60;99.90
14397;DHT22;50653;47.810;13.022;2023-05-07T01:49:16;15.60;99.90
14397;DHT22;50653;47.810;13.022;2023-05-07T01:51:42;15.60;99.90
14397;DHT22;50653;47.810;13.022;2023-05-07T01:54:09;15.50;99.90
14397;DHT22;50653;47.810;13.022;2023-05-07T01:56:35;15.60;99.90
14397;DHT22;50653;47.810;13.022;2023-05-07T01:59:01;15.40;99.90
14397;DHT22;50653;47.810;13.022;2023-05-07T02:01:27;15.30;99.90
14397;DHT22;50653;47.810;13.022;2023-05-07T02:03:54;15.50;99.90
14397;DHT22;50653;47.810;13.022;2023-05-07T02:06:23;15.50;99.90
14397;DHT22;50653;47.810;13.022;2023-05-07T02:08:51;15.50;99.90
14397;DHT22;50653;47.810;13.022;2023-05-07T02:11:17;15.50;99.90
14397;DHT22;50653;47.810;13.022;2023-05-07T02:13:43;15.40;99.90
14397;DHT22;50653;47.810;13.022;2023-05-07T02:16:09;15.20;99.90
14397;DHT22;50653;47.810;13.022;2023-05-07T02:18:37;15.30;99.90
14397;DHT22;50653;47.810;13.022;2023-05-07T02:21:03;15.50;99.90
14397;DHT22;50653;47.810;13.022;2023-05-07T02:23:28;15.50;99.90
14397;DHT22;50653;47.810;13.022;2023-05-07T02:25:54;15.40;99.90
14397;DHT22;50653;47.810;13.022;2023-05-07T02:28:20;15.40;99.90
14397;DHT22;50653;47.810;13.022;2023-05-07T02:30:59;15.40;99.90
14397;DHT22;50653;47.810;13.022;2023-05-07T02:33:26;15.00;99.90
14397;DHT22;50653;47.810;13.022;2023-05-07T02:35:51;15.00;99.90
14397;DHT22;50653;47.810;13.022;2023-05-07T02:38:17;15.20;99.90
14397;DHT22;50653;47.810;13.022;2023-05-07T02:40:43;15.20;99.90
14397;DHT22;50653;47.810;13.022;2023-05-07T02:43:09;15.30;99.90
14397;DHT22;50653;47.810;13.022;2023-05-07T02:45:35;15.40;99.90
14397;DHT22;50653;47.810;13.022;2023-05-07T02:48:04;15.40;99.90
14397;DHT22;50653;47.810;13.022;2023-05-07T02:50:31;15.30;99.90
14397;DHT22;50653;47.810;13.022;2023-05-07T02:52:58;15.10;99.90
14397;DHT22;50653;47.810;13.022;2023-05-07T02:55:23;15.10;99.90
14397;DHT22;50653;47.810;13.022;2023-05-07T02:57:49;15.30;99.90
14397;DHT22;50653;47.810;13.022;2023-05-07T03:00:17;15.20;99.90
14397;DHT22;50653;47.810;13.022;2023-05-07T03:03:03;14.80;99.90
14397;DHT22;50653;47.810;13.022;2023-05-07T03:05:28;14.70;99.90
14397;DHT22;50653;47.810;13.022;2023-05-07T03:07:54;14.90;99.90
14397;DHT22;50653;47.810;13.022;2023-05-07T03:10:20;15.10;99.90
14397;DHT22;50653;47.810;13.022;2023-05-07T03:12:45;15.30;99.90
14397;DHT22;50653;47.810;13.022;2023-05-07T03:15:15;15.20;99.90
14397;DHT22;50653;47.810;13.022;2023-05-07T03:17:40;15.10;99.90
14397;DHT22;50653;47.810;13.022;2023-05-07T03:20:08;15.10;99.90
14397;DHT22;50653;47.810;13.022;2023-05-07T03:22:35;15.20;99.90
14397;DHT22;50653;47.810;13.022;2023-05-07T03:25:01;15.20;99.90
14397;DHT22;50653;47.810;13.022;2023-05-07T03:27:27;15.10;99.90
14397;DHT22;50653;47.810;13.022;2023-05-07T03:29:53;15.10;99.90
14397;DHT22;50653;47.810;13.022;2023-05-07T03:32:19;14.80;99.90
14397;DHT22;50653;47.810;13.022;2023-05-07T03:34:45;14.80;99.90
14397;DHT22;50653;47.810;13.022;2023-05-07T03:37:12;15.10;99.90
14397;DHT22;50653;47.810;13.022;2023-05-07T03:39:38;15.00;99.90
14397;DHT22;50653;47.810;13.022;2023-05-07T03:42:04;15.10;99.90
14397;DHT22;50653;47.810;13.022;2023-05-07T03:44:32;15.00;99.90
14397;DHT22;50653;47.810;13.022;2023-05-07T03:46:59;15.00;99.90
14397;DHT22;50653;47.810;13.022;2023-05-07T03:49:25;15.00;99.90
14397;DHT22;50653;47.810;13.022;2023-05-07T03:51:51;14.90;99.90
14397;DHT22;50653;47.810;13.022;2023-05-07T03:54:17;14.80;99.90
14397;DHT22;50653;47.810;13.022;2023-05-07T03:56:45;14.80;99.90
14397;DHT22;50653;47.810;13.022;2023-05-07T03:59:12;14.70;99.90
14397;DHT22;50653;47.810;13.022;2023-05-07T04:01:39;14.70;99.90
14397;DHT22;50653;47.810;13.022;2023-05-07T04:04:06;14.90;99.90
14397;DHT22;50653;47.810;13.022;2023-05-07T04:06:33;14.90;99.90
14397;DHT22;50653;47.810;13.022;2023-05-07T04:08:59;15.00;99.90
14397;DHT22;50653;47.810;13.022;2023-05-07T04:11:26;15.00;99.90
14397;DHT22;50653;47.810;13.022;2023-05-07T04:13:52;15.10;99.90
14397;DHT22;50653;47.810;13.022;2023-05-07T04:16:21;15.20;99.90
14397;DHT22;50653;47.810;13.022;2023-05-07T04:18:47;14.90;99.90
14397;DHT22;50653;47.810;13.022;2023-05-07T04:21:20;14.90;99.90
14397;DHT22;50653;47.810;13.022;2023-05-07T04:23:48;14.70;99.90
14397;DHT22;50653;47.810;13.022;2023-05-07T04:26:14;14.80;99.90
14397;DHT22;50653;47.810;13.022;2023-05-07T04:28:43;14.90;99.90
14397;DHT22;50653;47.810;13.022;2023-05-07T04:31:08;14.60;99.90
14397;DHT22;50653;47.810;13.022;2023-05-07T04:33:36;14.80;99.90
14397;DHT22;50653;47.810;13.022;2023-05-07T04:36:03;14.90;99.90
14397;DHT22;50653;47.810;13.022;2023-05-07T04:38:31;15.00;99.90
14397;DHT22;50653;47.810;13.022;2023-05-07T04:41:05;15.00;99.90
14397;DHT22;50653;47.810;13.022;2023-05-07T04:43:34;14.70;99.90
14397;DHT22;50653;47.810;13.022;2023-05-07T04:46:00;14.90;99.90
14397;DHT22;50653;47.810;13.022;2023-05-07T04:48:27;15.10;99.90
14397;DHT22;50653;47.810;13.022;2023-05-07T04:50:54;15.10;99.90
14397;DHT22;50653;47.810;13.022;2023-05-07T04:53:21;15.10;99.90
14397;DHT22;50653;47.810;13.022;2023-05-07T04:55:48;15.10;99.90
14397;DHT22;50653;47.810;13.022;2023-05-07T04:58:14;15.10;99.90
14397;DHT22;50653;47.810;13.022;2023-05-07T05:00:41;15.10;99.90
14397;DHT22;50653;47.810;13.022;2023-05-07T05:03:08;15.10;99.90
14397;DHT22;50653;47.810;13.022;2023-05-07T05:05:34;15.20;99.90
14397;DHT22;50653;47.810;13.022;2023-05-07T05:08:01;15.20;99.90
14397;DHT22;50653;47.810;13.022;2023-05-07T05:10:27;15.10;99.90
14397;DHT22;50653;47.810;13.022;2023-05-07T05:12:53;15.00;99.90
14397;DHT22;50653;47.810;13.022;2023-05-07T05:15:20;15.10;99.90
14397;DHT22;50653;47.810;13.022;2023-05-07T05:17:46;15.10;99.90
14397;DHT22;50653;47.810;13.022;2023-05-07T05:20:12;15.10;99.90
14397;DHT22;50653;47.810;13.022;2023-05-07T05:22:40;14.80;99.90
14397;DHT22;50653;47.810;13.022;2023-05-07T05:25:07;14.90;99.90
14397;DHT22;50653;47.810;13.022;2023-05-07T05:27:33;15.00;99.90
14397;DHT22;50653;47.810;13.022;2023-05-07T05:29:59;15.20;99.90
14397;DHT22;50653;47.810;13.022;2023-05-07T05:32:25;15.00;99.90
14397;DHT22;50653;47.810;13.022;2023-05-07T05:34:53;15.10;99.90
14397;DHT22;50653;47.810;13.022;2023-05-07T05:37:19;14.90;99.90
14397;DHT22;50653;47.810;13.022;2023-05-07T05:39:45;15.00;99.90
14397;DHT22;50653;47.810;13.022;2023-05-07T05:42:11;15.10;99.90
14397;DHT22;50653;47.810;13.022;2023-05-07T05:44:36;15.20;99.90
14397;DHT22;50653;47.810;13.022;2023-05-07T05:47:03;15.20;99.90
14397;DHT22;50653;47.810;13.022;2023-05-07T05:49:29;15.20;99.90
14397;DHT22;50653;47.810;13.022;2023-05-07T05:51:55;15.30;99.90
14397;DHT22;50653;47.810;13.022;2023-05-07T05:54:23;15.40;99.90
14397;DHT22;50653;47.810;13.022;2023-05-07T05:56:49;15.30;99.90
14397;DHT22;50653;47.810;13.022;2023-05-07T05:59:16;15.30;99.90
14397;DHT22;50653;47.810;13.022;2023-05-07T06:01:42;15.20;99.90
14397;DHT22;50653;47.810;13.022;2023-05-07T06:04:07;14.90;99.90
14397;DHT22;50653;47.810;13.022;2023-05-07T06:06:34;15.10;99.90
14397;DHT22;50653;47.810;13.022;2023-05-07T06:09:01;15.20;99.90
14397;DHT22;50653;47.810;13.022;2023-05-07T06:11:34;15.30;99.90
14397;DHT22;50653;47.810;13.022;2023-05-07T06:14:00;15.40;99.90
14397;DHT22;50653;47.810;13.022;2023-05-07T06:16:27;15.40;99.90
14397;DHT22;50653;47.810;13.022;2023-05-07T06:18:53;15.50;99.90
14397;DHT22;50653;47.810;13.022;2023-05-07T06:21:18;15.50;99.90
14397;DHT22;50653;47.810;13.022;2023-05-07T06:23:44;15.60;99.90
14397;DHT22;50653;47.810;13.022;2023-05-07T06:26:10;15.40;99.90
14397;DHT22;50653;47.810;13.022;2023-05-07T06:28:40;15.50;99.90
14397;DHT22;50653;47.810;13.022;2023-05-07T06:31:17;15.50;99.90
14397;DHT22;50653;47.810;13.022;2023-05-07T06:33:51;15.60;99.90
14397;DHT22;50653;47.810;13.022;2023-05-07T06:36:17;15.70;99.90
14397;DHT22;50653;47.810;13.022;2023-05-07T06:38:44;15.70;99.90
14397;DHT22;50653;47.810;13.022;2023-05-07T06:41:09;15.70;99.90
14397;DHT22;50653;47.810;13.022;2023-05-07T06:43:37;15.80;99.90
14397;DHT22;50653;47.810;13.022;2023-05-07T06:46:27;15.80;99.90
14397;DHT22;50653;47.810;13.022;2023-05-07T06:48:53;15.80;99.90
14397;DHT22;50653;47.810;13.022;2023-05-07T06:51:19;15.80;99.90
14397;DHT22;50653;47.810;13.022;2023-05-07T06:53:45;15.90;99.90
14397;DHT22;50653;47.810;13.022;2023-05-07T06:56:11;15.90;99.90
14397;DHT22;50653;47.810;13.022;2023-05-07T06:58:38;15.90;99.90
14397;DHT22;50653;47.810;13.022;2023-05-07T07:01:04;16.00;99.90
14397;DHT22;50653;47.810;13.022;2023-05-07T07:03:32;16.00;99.90
14397;DHT22;50653;47.810;13.022;2023-05-07T07:05:58;16.10;99.90
14397;DHT22;50653;47.810;13.022;2023-05-07T07:08:23;16.10;99.90
14397;DHT22;50653;47.810;13.022;2023-05-07T07:10:50;16.10;99.90
14397;DHT22;50653;47.810;13.022;2023-05-07T07:13:16;16.20;99.90
14397;DHT22;50653;47.810;13.022;2023-05-07T07:15:43;16.20;99.90
14397;DHT22;50653;47.810;13.022;2023-05-07T07:18:08;16.30;99.90
14397;DHT22;50653;47.810;13.022;2023-05-07T07:20:34;16.20;99.90
14397;DHT22;50653;47.810;13.022;2023-05-07T07:23:00;16.30;99.90
14397;DHT22;50653;47.810;13.022;2023-05-07T07:25:26;16.30;99.90
14397;DHT22;50653;47.810;13.022;2023-05-07T07:27:52;16.30;99.90
14397;DHT22;50653;47.810;13.022;2023-05-07T07:30:19;16.40;99.90
14397;DHT22;50653;47.810;13.022;2023-05-07T07:32:47;16.40;99.90
14397;DHT22;50653;47.810;13.022;2023-05-07T07:35:14;16.50;99.90
14397;DHT22;50653;47.810;13.022;2023-05-07T07:37:40;16.50;99.90
14397;DHT22;50653;47.810;13.022;2023-05-07T07:40:06;16.50;99.90
14397;DHT22;50653;47.810;13.022;2023-05-07T07:42:33;16.60;99.90
14397;DHT22;50653;47.810;13.022;2023-05-07T07:44:59;16.60;99.90
14397;DHT22;50653;47.810;13.022;2023-05-07T07:47:29;16.60;99.90
14397;DHT22;50653;47.810;13.022;2023-05-07T07:49:55;16.60;99.90
14397;DHT22;50653;47.810;13.022;2023-05-07T07:52:20;16.70;99.90
14397;DHT22;50653;47.810;13.022;2023-05-07T07:54:46;16.80;99.90
14397;DHT22;50653;47.810;13.022;2023-05-07T07:57:12;16.90;99.90
14397;DHT22;50653;47.810;13.022;2023-05-07T07:59:38;16.90;99.90
14397;DHT22;50653;47.810;13.022;2023-05-07T08:02:06;16.90;99.90
14397;DHT22;50653;47.810;13.022;2023-05-07T08:04:33;16.90;99.90
14397;DHT22;50653;47.810;13.022;2023-05-07T08:07:02;17.00;99.90
14397;DHT22;50653;47.810;13.022;2023-05-07T08:09:30;17.10;99.90
14397;DHT22;50653;47.810;13.022;2023-05-07T08:11:58;17.00;99.90
14397;DHT22;50653;47.810;13.022;2023-05-07T08:14:24;16.90;99.90
14397;DHT22;50653;47.810;13.022;2023-05-07T08:16:50;17.10;99.90
14397;DHT22;50653;47.810;13.022;2023-05-07T08:19:16;17.10;99.90
14397;DHT22;50653;47.810;13.022;2023-05-07T08:21:43;17.10;99.90
14397;DHT22;50653;47.810;13.022;2023-05-07T08:24:11;17.30;99.90
14397;DHT22;50653;47.810;13.022;2023-05-07T08:26:37;17.30;99.90
14397;DHT22;50653;47.810;13.022;2023-05-07T08:29:05;17.20;99.90
14397;DHT22;50653;47.810;13.022;2023-05-07T08:31:31;17.20;99.90
14397;DHT22;50653;47.810;13.022;2023-05-07T08:33:57;17.30;99.90
14397;DHT22;50653;47.810;13.022;2023-05-07T08:36:23;17.40;99.90
14397;DHT22;50653;47.810;13.022;2023-05-07T08:38:49;17.40;99.90
14397;DHT22;50653;47.810;13.022;2023-05-07T08:41:15;17.50;99.90
14397;DHT22;50653;47.810;13.022;2023-05-07T08:43:47;17.70;99.90
14397;DHT22;50653;47.810;13.022;2023-05-07T08:46:20;17.70;99.90
14397;DHT22;50653;47.810;13.022;2023-05-07T08:48:51;17.60;99.90
14397;DHT22;50653;47.810;13.022;2023-05-07T08:51:21;17.70;99.90
14397;DHT22;50653;47.810;13.022;2023-05-07T08:53:48;17.70;99.90
14397;DHT22;50653;47.810;13.022;2023-05-07T08:56:20;17.80;99.90
14397;DHT22;50653;47.810;13.022;2023-05-07T08:58:47;17.90;99.90
14397;DHT22;50653;47.810;13.022;2023-05-07T09:01:15;17.90;99.90
14397;DHT22;50653;47.810;13.022;2023-05-07T09:03:44;17.90;99.90
14397;DHT22;50653;47.810;13.022;2023-05-07T09:06:11;17.90;99.90
14397;DHT22;50653;47.810;13.022;2023-05-07T09:08:37;18.20;99.90
14397;DHT22;50653;47.810;13.022;2023-05-07T09:11:05;18.30;99.90
14397;DHT22;50653;47.810;13.022;2023-05-07T09:13:31;18.20;99.90
14397;DHT22;50653;47.810;13.022;2023-05-07T09:16:08;18.20;99.90
14397;DHT22;50653;47.810;13.022;2023-05-07T09:18:35;18.20;99.90
14397;DHT22;50653;47.810;13.022;2023-05-07T09:21:05;18.50;99.90
14397;DHT22;50653;47.810;13.022;2023-05-07T09:23:35;18.40;99.90
14397;DHT22;50653;47.810;13.022;2023-05-07T09:26:01;18.60;99.90
14397;DHT22;50653;47.810;13.022;2023-05-07T09:28:30;18.60;99.90
14397;DHT22;50653;47.810;13.022;2023-05-07T09:30:56;18.50;99.90
14397;DHT22;50653;47.810;13.022;2023-05-07T09:33:21;18.60;99.90
14397;DHT22;50653;47.810;13.022;2023-05-07T09:35:51;18.80;99.90
14397;DHT22;50653;47.810;13.022;2023-05-07T09:38:19;18.80;99.90
14397;DHT22;50653;47.810;13.022;2023-05-07T09:41:05;18.80;99.90
14397;DHT22;50653;47.810;13.022;2023-05-07T09:43:34;19.00;99.90
14397;DHT22;50653;47.810;13.022;2023-05-07T09:46:12;19.10;99.90
14397;DHT22;50653;47.810;13.022;2023-05-07T09:48:41;19.10;99.90
14397;DHT22;50653;47.810;13.022;2023-05-07T09:51:28;19.00;99.90
14397;DHT22;50653;47.810;13.022;2023-05-07T09:53:58;19.10;99.90
14397;DHT22;50653;47.810;13.022;2023-05-07T09:56:27;19.10;99.90
14397;DHT22;50653;47.810;13.022;2023-05-07T09:58:56;19.10;99.90
14397;DHT22;50653;47.810;13.022;2023-05-07T10:01:25;19.30;99.90
14397;DHT22;50653;47.810;13.022;2023-05-07T10:03:51;19.30;99.90
14397;DHT22;50653;47.810;13.022;2023-05-07T10:06:19;19.30;99.90
14397;DHT22;50653;47.810;13.022;2023-05-07T10:08:46;19.50;99.90
14397;DHT22;50653;47.810;13.022;2023-05-07T10:11:13;19.50;99.90
14397;DHT22;50653;47.810;13.022;2023-05-07T10:13:41;19.60;99.30
14397;DHT22;50653;47.810;13.022;2023-05-07T10:16:09;19.60;99.90
14397;DHT22;50653;47.810;13.022;2023-05-07T10:18:41;19.50;99.90
14397;DHT22;50653;47.810;13.022;2023-05-07T10:21:18;19.50;99.90
14397;DHT22;50653;47.810;13.022;2023-05-07T10:23:50;19.60;99.90
14397;DHT22;50653;47.810;13.022;2023-05-07T10:26:18;19.60;99.90
14397;DHT22;50653;47.810;13.022;2023-05-07T10:28:49;19.70;99.90
14397;DHT22;50653;47.810;13.022;2023-05-07T10:34:36;20.00;99.90
14397;DHT22;50653;47.810;13.022;2023-05-07T10:37:04;20.00;99.90
14397;DHT22;50653;47.810;13.022;2023-05-07T10:39:30;20.10;99.90
14397;DHT22;50653;47.810;13.022;2023-05-07T10:42:07;20.00;99.90
14397;DHT22;50653;47.810;13.022;2023-05-07T10:44:33;20.00;99.90
14397;DHT22;50653;47.810;13.022;2023-05-07T10:47:07;20.10;99.90
14397;DHT22;50653;47.810;13.022;2023-05-07T10:49:36;20.40;99.90
14397;DHT22;50653;47.810;13.022;2023-05-07T10:52:16;20.40;99.90
14397;DHT22;50653;47.810;13.022;2023-05-07T10:57:49;20.30;99.90
14397;DHT22;50653;47.810;13.022;2023-05-07T11:05:37;20.40;99.90
14397;DHT22;50653;47.810;13.022;2023-05-07T11:08:18;20.40;99.90
14397;DHT22;50653;47.810;13.022;2023-05-07T11:10:57;20.60;99.90
14397;DHT22;50653;47.810;13.022;2023-05-07T11:13:45;20.50;99.90
14397;DHT22;50653;47.810;13.022;2023-05-07T11:16:22;20.50;99.90
14397;DHT22;50653;47.810;13.022;2023-05-07T11:19:01;20.70;99.80
14397;DHT22;50653;47.810;13.022;2023-05-07T11:24:07;20.50;99.60
14397;DHT22;50653;47.810;13.022;2023-05-07T11:26:49;20.60;98.60
14397;DHT22;50653;47.810;13.022;2023-05-07T11:29:21;20.80;98.10
14397;DHT22;50653;47.810;13.022;2023-05-07T11:31:52;20.60;98.60
14397;DHT22;50653;47.810;13.022;2023-05-07T11:34:24;20.80;98.00
14397;DHT22;50653;47.810;13.022;2023-05-07T11:36:52;20.70;98.00
14397;DHT22;50653;47.810;13.022;2023-05-07T11:39:28;20.90;97.50
14397;DHT22;50653;47.810;13.022;2023-05-07T11:41:55;20.80;96.10
14397;DHT22;50653;47.810;13.022;2023-05-07T11:44:21;20.80;94.00
14397;DHT22;50653;47.810;13.022;2023-05-07T11:46:47;20.90;95.10
14397;DHT22;50653;47.810;13.022;2023-05-07T11:49:13;20.90;95.20
14397;DHT22;50653;47.810;13.022;2023-05-07T11:51:39;20.80;94.40
14397;DHT22;50653;47.810;13.022;2023-05-07T11:54:06;20.90;94.80
14397;DHT22;50653;47.810;13.022;2023-05-07T11:56:37;20.80;94.00
14397;DHT22;50653;47.810;13.022;2023-05-07T11:59:03;21.10;93.70
14397;DHT22;50653;47.810;13.022;2023-05-07T12:01:28;21.20;92.30
14397;DHT22;50653;47.810;13.022;2023-05-07T12:03:54;21.20;92.10
14397;DHT22;50653;47.810;13.022;2023-05-07T12:06:20;21.30;92.30
14397;DHT22;50653;47.810;13.022;2023-05-07T12:08:46;21.30;91.80
14397;DHT22;50653;47.810;13.022;2023-05-07T12:11:21;21.20;92.40
14397;DHT22;50653;47.810;13.022;2023-05-07T12:13:47;21.30;91.00
14397;DHT22;50653;47.810;13.022;2023-05-07T12:16:14;21.30;90.50
14397;DHT22;50653;47.810;13.022;2023-05-07T12:18:40;21.50;90.10
14397;DHT22;50653;47.810;13.022;2023-05-07T12:21:06;21.40;91.00
14397;DHT22;50653;47.810;13.022;2023-05-07T12:23:34;21.30;90.80
14397;DHT22;50653;47.810;13.022;2023-05-07T12:26:00;21.40;89.00
14397;DHT22;50653;47.810;13.022;2023-05-07T12:28:26;21.50;89.70
14397;DHT22;50653;47.810;13.022;2023-05-07T12:30:52;21.70;87.80
14397;DHT22;50653;47.810;13.022;2023-05-07T12:33:19;21.60;90.20
14397;DHT22;50653;47.810;13.022;2023-05-07T12:35:48;21.60;89.40
14397;DHT22;50653;47.810;13.022;2023-05-07T12:38:16;21.80;88.00
14397;DHT22;50653;47.810;13.022;2023-05-07T12:40:44;21.80;88.30
14397;DHT22;50653;47.810;13.022;2023-05-07T12:43:21;21.80;87.10
14397;DHT22;50653;47.810;13.022;2023-05-07T12:45:49;21.80;85.60
14397;DHT22;50653;47.810;13.022;2023-05-07T12:48:15;22.00;82.50
14397;DHT22;50653;47.810;13.022;2023-05-07T12:50:40;22.00;84.40
14397;DHT22;50653;47.810;13.022;2023-05-07T12:53:07;21.70;87.70
14397;DHT22;50653;47.810;13.022;2023-05-07T12:55:44;21.90;85.60
14397;DHT22;50653;47.810;13.022;2023-05-07T12:58:32;22.00;84.60
14397;DHT22;50653;47.810;13.022;2023-05-07T13:01:00;21.90;83.50
14397;DHT22;50653;47.810;13.022;2023-05-07T13:03:31;22.10;83.00
14397;DHT22;50653;47.810;13.022;2023-05-07T13:06:02;22.10;82.80
14397;DHT22;50653;47.810;13.022;2023-05-07T13:08:36;22.10;81.20
14397;DHT22;50653;47.810;13.022;2023-05-07T13:11:03;22.10;81.30
14397;DHT22;50653;47.810;13.022;2023-05-07T13:13:37;22.10;81.40
14397;DHT22;50653;47.810;13.022;2023-05-07T13:16:23;22.00;83.90
14397;DHT22;50653;47.810;13.022;2023-05-07T13:18:49;22.10;82.80
14397;DHT22;50653;47.810;13.022;2023-05-07T13:21:15;22.00;83.70
14397;DHT22;50653;47.810;13.022;2023-05-07T13:23:40;22.10;83.10
14397;DHT22;50653;47.810;13.022;2023-05-07T13:26:06;22.40;80.60
14397;DHT22;50653;47.810;13.022;2023-05-07T13:28:32;22.50;80.00
14397;DHT22;50653;47.810;13.022;2023-05-07T13:30:57;22.40;79.90
14397;DHT22;50653;47.810;13.022;2023-05-07T13:33:23;22.40;79.00
14397;DHT22;50653;47.810;13.022;2023-05-07T13:35:49;22.40;80.90
14397;DHT22;50653;47.810;13.022;2023-05-07T13:38:15;22.40;79.80
14397;DHT22;50653;47.810;13.022;2023-05-07T13:40:41;22.60;80.70
14397;DHT22;50653;47.810;13.022;2023-05-07T13:43:07;22.60;80.20
14397;DHT22;50653;47.810;13.022;2023-05-07T13:45:33;22.60;81.40
14397;DHT22;50653;47.810;13.022;2023-05-07T13:47:58;22.60;80.80
14397;DHT22;50653;47.810;13.022;2023-05-07T13:50:24;22.50;79.80
14397;DHT22;50653;47.810;13.022;2023-05-07T13:52:52;22.50;81.00
14397;DHT22;50653;47.810;13.022;2023-05-07T13:55:18;22.60;79.60
14397;DHT22;50653;47.810;13.022;2023-05-07T13:57:45;22.70;79.30
14397;DHT22;50653;47.810;13.022;2023-05-07T14:00:13;22.80;78.10
14397;DHT22;50653;47.810;13.022;2023-05-07T14:02:41;22.80;77.90
14397;DHT22;50653;47.810;13.022;2023-05-07T14:05:07;22.70;79.10
14397;DHT22;50653;47.810;13.022;2023-05-07T14:07:34;22.90;78.10
14397;DHT22;50653;47.810;13.022;2023-05-07T14:10:00;22.90;78.60
14397;DHT22;50653;47.810;13.022;2023-05-07T14:12:25;22.80;77.90
14397;DHT22;50653;47.810;13.022;2023-05-07T14:14:51;22.70;79.60
14397;DHT22;50653;47.810;13.022;2023-05-07T14:17:17;22.60;78.00
14397;DHT22;50653;47.810;13.022;2023-05-07T14:19:43;22.70;79.60
14397;DHT22;50653;47.810;13.022;2023-05-07T14:22:09;22.80;80.30
14397;DHT22;50653;47.810;13.022;2023-05-07T14:24:35;22.70;80.10
14397;DHT22;50653;47.810;13.022;2023-05-07T14:27:00;22.80;80.60
14397;DHT22;50653;47.810;13.022;2023-05-07T14:29:26;22.90;81.00
14397;DHT22;50653;47.810;13.022;2023-05-07T14:31:51;22.90;80.00
14397;DHT22;50653;47.810;13.022;2023-05-07T14:34:17;22.90;80.30
14397;DHT22;50653;47.810;13.022;2023-05-07T14:36:43;22.90;80.30
14397;DHT22;50653;47.810;13.022;2023-05-07T14:39:09;22.80;79.80
14397;DHT22;50653;47.810;13.022;2023-05-07T14:41:35;22.70;78.90
14397;DHT22;50653;47.810;13.022;2023-05-07T14:44:01;22.70;79.10
14397;DHT22;50653;47.810;13.022;2023-05-07T14:46:29;22.60;79.20
14397;DHT22;50653;47.810;13.022;2023-05-07T14:48:55;22.70;80.00
14397;DHT22;50653;47.810;13.022;2023-05-07T14:51:21;22.50;78.20
14397;DHT22;50653;47.810;13.022;2023-05-07T14:53:47;22.50;79.10
14397;DHT22;50653;47.810;13.022;2023-05-07T14:56:13;22.50;79.00
14397;DHT22;50653;47.810;13.022;2023-05-07T14:58:39;22.40;79.90
14397;DHT22;50653;47.810;13.022;2023-05-07T15:01:05;22.40;80.20
14397;DHT22;50653;47.810;13.022;2023-05-07T15:03:30;22.40;80.20
14397;DHT22;50653;47.810;13.022;2023-05-07T15:05:56;22.40;79.20
14397;DHT22;50653;47.810;13.022;2023-05-07T15:08:22;22.40;78.80
14397;DHT22;50653;47.810;13.022;2023-05-07T15:10:48;22.40;79.30
14397;DHT22;50653;47.810;13.022;2023-05-07T15:13:13;22.30;79.70
14397;DHT22;50653;47.810;13.022;2023-05-07T15:15:39;22.20;79.60
14397;DHT22;50653;47.810;13.022;2023-05-07T15:18:05;22.10;79.60
14397;DHT22;50653;47.810;13.022;2023-05-07T15:20:31;22.20;79.90
14397;DHT22;50653;47.810;13.022;2023-05-07T15:22:56;22.10;79.70
14397;DHT22;50653;47.810;13.022;2023-05-07T15:25:23;22.10;80.30
14397;DHT22;50653;47.810;13.022;2023-05-07T15:27:48;22.20;80.60
14397;DHT22;50653;47.810;13.022;2023-05-07T15:30:14;22.10;80.50
14397;DHT22;50653;47.810;13.022;2023-05-07T15:32:41;22.10;80.00